Washburn, North Dakota
Current Conditions -  °F | °C
As of 11:15 PM on Saturday 20 Dec 2014 (Local Time) from KHZE Reporting Station
Clear Clear  
Wind Chill: 15°   Ceiling: Unl
Heat Index: 25°   Visibility: 10mi
Dew Point: 23°   Wind: 9mph
Humidity: 93%   Direction: 230°SW
Pressure: 29.76"   Gusts: NA
Location:  47.29°N, 101.03°W
Report Text: KHZE 210515Z AUTO 23008KT 10SM CLR M04/M05 A2976 RMK AO2
Loading
Personal Weather Stations






























Interactive Weather Map New forecast layout! Learn more

10-Day Weather Forecast

Advertisements
Track Severe Weather on mobile